PWSweather.com
Personal Weather Stations
Station Observations
RIVERSBEND
Rivers Bend, Heathsville, VA 22473

Rivers BendHeathsville, VA 22473

Lat: 37.87, Lon: -76.39

Elevation: 45

Station Type: Oregon Scientific WMR968

High Low Average
Temperature 63.5°F17.5°C 41.2°F5.1°C 52.8°F11.6°C
Dew Point 18.7°F-7.4°C 10.4°F-12.0°C 14.9°F-9.5°C
Winds 4.0 mph 6.4 kmh Calm Calm 1.0 mph WSW1.6 kmh WSW
Wind Gusts 8.7 mph14.0 kmh -- 3.0 mph4.8 kmh
Humidity 38% 16% 23%
Pressure 30.71 in1040.0 mb 30.59 in1035.9 mb -
Precipitation 0.00 in0.0 mm - -
Hour Temp Dew Point Humidity Winds Wind Gusts Pressure Precip Precip Rate Daily Precip Total
12:03 AM 43.7°F6.5°C 13.6°F-10.2°C 29% Calm Calm -- 30.59 in1035.9 mb 0.00 in0.0 mm 0.00 in/hr0.0 mm/hr 0.00 in0.0 mm
12:13 AM 43.5°F6.4°C 12.6°F-10.8°C 28% Calm Calm -- 30.59 in1035.9 mb 0.00 in0.0 mm 0.00 in/hr0.0 mm/hr 0.00 in0.0 mm
12:23 AM 43.0°F6.1°C 12.9°F-10.6°C 29% Calm Calm -- 30.59 in1035.9 mb 0.00 in0.0 mm 0.00 in/hr0.0 mm/hr 0.00 in0.0 mm
12:33 AM 42.6°F5.9°C 12.6°F-10.8°C 29% Calm Calm -- 30.59 in1035.9 mb 0.00 in0.0 mm 0.00 in/hr0.0 mm/hr 0.00 in0.0 mm
12:43 AM 42.6°F5.9°C 12.6°F-10.8°C 29% Calm Calm -- 30.59 in1035.9 mb 0.00 in0.0 mm 0.00 in/hr0.0 mm/hr 0.00 in0.0 mm
12:53 AM 42.4°F5.8°C 12.4°F-10.9°C 29% Calm Calm -- 30.59 in1035.9 mb 0.00 in0.0 mm 0.00 in/hr0.0 mm/hr 0.00 in0.0 mm
01:03 AM 42.1°F5.6°C 12.9°F-10.6°C 30% Calm Calm -- 30.59 in1035.9 mb 0.00 in0.0 mm 0.00 in/hr0.0 mm/hr 0.00 in0.0 mm
01:13 AM 42.1°F5.6°C 12.2°F-11.0°C 29% Calm Calm -- 30.59 in1035.9 mb 0.00 in0.0 mm 0.00 in/hr0.0 mm/hr 0.00 in0.0 mm
01:23 AM 41.7°F5.4°C 12.6°F-10.8°C 30% Calm Calm -- 30.59 in1035.9 mb 0.00 in0.0 mm 0.00 in/hr0.0 mm/hr 0.00 in0.0 mm
01:33 AM 41.5°F5.3°C 12.4°F-10.9°C 30% Calm Calm -- 30.59 in1035.9 mb 0.00 in0.0 mm 0.00 in/hr0.0 mm/hr 0.00 in0.0 mm
01:43 AM 41.5°F5.3°C 12.4°F-10.9°C 30% Calm Calm -- 30.59 in1035.9 mb 0.00 in0.0 mm 0.00 in/hr0.0 mm/hr 0.00 in0.0 mm
01:53 AM 41.9°F5.5°C 14.2°F-9.9°C 32% Calm Calm -- 30.59 in1035.9 mb 0.00 in0.0 mm 0.00 in/hr0.0 mm/hr 0.00 in0.0 mm
02:03 AM 42.3°F5.7°C 15.3°F-9.3°C 33% Calm Calm -- 30.59 in1035.9 mb 0.00 in0.0 mm 0.00 in/hr0.0 mm/hr 0.00 in0.0 mm
02:13 AM 42.3°F5.7°C 16.0°F-8.9°C 34% Calm Calm -- 30.59 in1035.9 mb 0.00 in0.0 mm 0.00 in/hr0.0 mm/hr 0.00 in0.0 mm
02:23 AM 42.3°F5.7°C 16.5°F-8.6°C 35% Calm Calm -- 30.59 in1035.9 mb 0.00 in0.0 mm 0.00 in/hr0.0 mm/hr 0.00 in0.0 mm
02:33 AM 41.7°F5.4°C 14.7°F-9.6°C 33% Calm Calm -- 30.59 in1035.9 mb 0.00 in0.0 mm 0.00 in/hr0.0 mm/hr 0.00 in0.0 mm
02:43 AM 41.9°F5.5°C 16.9°F-8.4°C 36% Calm Calm -- 30.59 in1035.9 mb 0.00 in0.0 mm 0.00 in/hr0.0 mm/hr 0.00 in0.0 mm
02:53 AM 42.3°F5.7°C 17.2°F-8.2°C 36% Calm Calm -- 30.59 in1035.9 mb 0.00 in0.0 mm 0.00 in/hr0.0 mm/hr 0.00 in0.0 mm
03:03 AM 42.3°F5.7°C 17.2°F-8.2°C 36% Calm Calm -- 30.59 in1035.9 mb 0.00 in0.0 mm 0.00 in/hr0.0 mm/hr 0.00 in0.0 mm
03:13 AM 42.1°F5.6°C 17.1°F-8.3°C 36% Calm Calm -- 30.59 in1035.9 mb 0.00 in0.0 mm 0.00 in/hr0.0 mm/hr 0.00 in0.0 mm
03:23 AM 41.7°F5.4°C 16.7°F-8.5°C 36% Calm Calm -- 30.59 in1035.9 mb 0.00 in0.0 mm 0.00 in/hr0.0 mm/hr 0.00 in0.0 mm
03:33 AM 41.9°F5.5°C 16.9°F-8.4°C 36% Calm Calm -- 30.59 in1035.9 mb 0.00 in0.0 mm 0.00 in/hr0.0 mm/hr 0.00 in0.0 mm
03:43 AM 41.9°F5.5°C 16.9°F-8.4°C 36% Calm Calm -- 30.59 in1035.9 mb 0.00 in0.0 mm 0.00 in/hr0.0 mm/hr 0.00 in0.0 mm
03:54 AM 41.9°F5.5°C 16.9°F-8.4°C 36% Calm Calm -- 30.59 in1035.9 mb 0.00 in0.0 mm 0.00 in/hr0.0 mm/hr 0.00 in0.0 mm
04:04 AM 41.5°F5.3°C 17.2°F-8.2°C 37% Calm Calm -- 30.59 in1035.9 mb 0.00 in0.0 mm 0.00 in/hr0.0 mm/hr 0.00 in0.0 mm
04:14 AM 41.2°F5.1°C 16.9°F-8.4°C 37% Calm Calm -- 30.59 in1035.9 mb 0.00 in0.0 mm 0.00 in/hr0.0 mm/hr 0.00 in0.0 mm
04:24 AM 41.4°F5.2°C 16.5°F-8.6°C 36% Calm Calm -- 30.59 in1035.9 mb 0.00 in0.0 mm 0.00 in/hr0.0 mm/hr 0.00 in0.0 mm
04:34 AM 41.5°F5.3°C 16.0°F-8.9°C 35% Calm Calm -- 30.59 in1035.9 mb 0.00 in0.0 mm 0.00 in/hr0.0 mm/hr 0.00 in0.0 mm
04:44 AM 41.5°F5.3°C 16.0°F-8.9°C 35% Calm Calm -- 30.59 in1035.9 mb 0.00 in0.0 mm 0.00 in/hr0.0 mm/hr 0.00 in0.0 mm
04:54 AM 41.5°F5.3°C 16.5°F-8.6°C 36% Calm Calm -- 30.59 in1035.9 mb 0.00 in0.0 mm 0.00 in/hr0.0 mm/hr 0.00 in0.0 mm
05:04 AM 41.7°F5.4°C 17.4°F-8.1°C 37% Calm Calm -- 30.59 in1035.9 mb 0.00 in0.0 mm 0.00 in/hr0.0 mm/hr 0.00 in0.0 mm
05:14 AM 41.7°F5.4°C 16.7°F-8.5°C 36% Calm Calm -- 30.59 in1035.9 mb 0.00 in0.0 mm 0.00 in/hr0.0 mm/hr 0.00 in0.0 mm
05:24 AM 41.9°F5.5°C 17.6°F-8.0°C 37% Calm Calm -- 30.59 in1035.9 mb 0.00 in0.0 mm 0.00 in/hr0.0 mm/hr 0.00 in0.0 mm
05:34 AM 42.1°F5.6°C 18.3°F-7.6°C 38% Calm Calm -- 30.59 in1035.9 mb 0.00 in0.0 mm 0.00 in/hr0.0 mm/hr 0.00 in0.0 mm
05:44 AM 42.3°F5.7°C 18.5°F-7.5°C 38% Calm Calm -- 30.59 in1035.9 mb 0.00 in0.0 mm 0.00 in/hr0.0 mm/hr 0.00 in0.0 mm
05:54 AM 42.4°F5.8°C 18.7°F-7.4°C 38% Calm Calm -- 30.59 in1035.9 mb 0.00 in0.0 mm 0.00 in/hr0.0 mm/hr 0.00 in0.0 mm
06:04 AM 42.8°F6.0°C 15.8°F-9.0°C 33% Calm Calm -- 30.59 in1035.9 mb 0.00 in0.0 mm 0.00 in/hr0.0 mm/hr 0.00 in0.0 mm
06:14 AM 43.2°F6.2°C 13.8°F-10.1°C 30% Calm Calm -- 30.59 in1035.9 mb 0.00 in0.0 mm 0.00 in/hr0.0 mm/hr 0.00 in0.0 mm
06:24 AM 43.2°F6.2°C 13.1°F-10.5°C 29% Calm Calm -- 30.59 in1035.9 mb 0.00 in0.0 mm 0.00 in/hr0.0 mm/hr 0.00 in0.0 mm
06:34 AM 43.0°F6.1°C 12.2°F-11.0°C 28% Calm Calm -- 30.59 in1035.9 mb 0.00 in0.0 mm 0.00 in/hr0.0 mm/hr 0.00 in0.0 mm
06:44 AM 42.8°F6.0°C 12.0°F-11.1°C 28% Calm Calm -- 30.59 in1035.9 mb 0.00 in0.0 mm 0.00 in/hr0.0 mm/hr 0.00 in0.0 mm
06:54 AM 43.0°F6.1°C 12.9°F-10.6°C 29% Calm Calm -- 30.65 in1037.9 mb 0.00 in0.0 mm 0.00 in/hr0.0 mm/hr 0.00 in0.0 mm
07:05 AM 43.2°F6.2°C 13.1°F-10.5°C 29% Calm Calm -- 30.65 in1037.9 mb 0.00 in0.0 mm 0.00 in/hr0.0 mm/hr 0.00 in0.0 mm
07:15 AM 43.0°F6.1°C 12.9°F-10.6°C 29% Calm Calm -- 30.65 in1037.9 mb 0.00 in0.0 mm 0.00 in/hr0.0 mm/hr 0.00 in0.0 mm
07:25 AM 43.0°F6.1°C 12.9°F-10.6°C 29% Calm Calm -- 30.59 in1035.9 mb 0.00 in0.0 mm 0.00 in/hr0.0 mm/hr 0.00 in0.0 mm
07:35 AM 43.3°F6.3°C 13.3°F-10.4°C 29% Calm Calm -- 30.59 in1035.9 mb 0.00 in0.0 mm 0.00 in/hr0.0 mm/hr 0.00 in0.0 mm
07:45 AM 43.9°F6.6°C 14.5°F-9.7°C 30% Calm Calm -- 30.65 in1037.9 mb 0.00 in0.0 mm 0.00 in/hr0.0 mm/hr 0.00 in0.0 mm
07:55 AM 44.8°F7.1°C 13.6°F-10.2°C 28% Calm Calm -- 30.65 in1037.9 mb 0.00 in0.0 mm 0.00 in/hr0.0 mm/hr 0.00 in0.0 mm
08:06 AM 45.5°F7.5°C 14.4°F-9.8°C 28% Calm Calm -- 30.65 in1037.9 mb 0.00 in0.0 mm 0.00 in/hr0.0 mm/hr 0.00 in0.0 mm
08:16 AM 46.4°F8.0°C 14.2°F-9.9°C 27% Calm Calm -- 30.65 in1037.9 mb 0.00 in0.0 mm 0.00 in/hr0.0 mm/hr 0.00 in0.0 mm
08:26 AM 47.1°F8.4°C 14.9°F-9.5°C 27% Calm Calm -- 30.65 in1037.9 mb 0.00 in0.0 mm 0.00 in/hr0.0 mm/hr 0.00 in0.0 mm
08:36 AM 48.7°F9.3°C 13.6°F-10.2°C 24% Calm Calm -- 30.65 in1037.9 mb 0.00 in0.0 mm 0.00 in/hr0.0 mm/hr 0.00 in0.0 mm
08:46 AM 49.1°F9.5°C 13.8°F-10.1°C 24% Calm Calm -- 30.65 in1037.9 mb 0.00 in0.0 mm 0.00 in/hr0.0 mm/hr 0.00 in0.0 mm
08:57 AM 50.2°F10.1°C 11.8°F-11.2°C 21% Calm Calm -- 30.65 in1037.9 mb 0.00 in0.0 mm 0.00 in/hr0.0 mm/hr 0.00 in0.0 mm
09:07 AM 50.7°F10.4°C 12.2°F-11.0°C 21% Calm Calm 4.0 mph6.4 kmh 30.65 in1037.9 mb 0.00 in0.0 mm 0.00 in/hr0.0 mm/hr 0.00 in0.0 mm
09:17 AM 51.3°F10.7°C 12.7°F-10.7°C 21% Calm Calm 3.6 mph5.8 kmh 30.65 in1037.9 mb 0.00 in0.0 mm 0.00 in/hr0.0 mm/hr 0.00 in0.0 mm
09:27 AM 52.0°F11.1°C 13.3°F-10.4°C 21% Calm Calm 3.1 mph5.0 kmh 30.65 in1037.9 mb 0.00 in0.0 mm 0.00 in/hr0.0 mm/hr 0.00 in0.0 mm
09:37 AM 52.7°F11.5°C 10.4°F-12.0°C 18% Calm Calm 5.4 mph8.7 kmh 30.65 in1037.9 mb 0.00 in0.0 mm 0.00 in/hr0.0 mm/hr 0.00 in0.0 mm
09:47 AM 53.2°F11.8°C 10.9°F-11.7°C 18% 1.0 mph NW1.6 kmh NW 4.9 mph7.9 kmh 30.65 in1037.9 mb 0.00 in0.0 mm 0.00 in/hr0.0 mm/hr 0.00 in0.0 mm
09:57 AM 53.8°F12.1°C 11.3°F-11.5°C 18% 1.0 mph NW1.6 kmh NW 2.7 mph4.3 kmh 30.65 in1037.9 mb 0.00 in0.0 mm 0.00 in/hr0.0 mm/hr 0.00 in0.0 mm
10:07 AM 55.6°F13.1°C 11.5°F-11.4°C 17% Calm Calm 4.0 mph6.4 kmh 30.65 in1037.9 mb 0.00 in0.0 mm 0.00 in/hr0.0 mm/hr 0.00 in0.0 mm
10:17 AM 57.0°F13.9°C 12.7°F-10.7°C 17% Calm Calm 4.0 mph6.4 kmh 30.65 in1037.9 mb 0.00 in0.0 mm 0.00 in/hr0.0 mm/hr 0.00 in0.0 mm
10:27 AM 56.3°F13.5°C 12.0°F-11.1°C 17% 1.0 mph N1.6 kmh N 4.5 mph7.2 kmh 30.65 in1037.9 mb 0.00 in0.0 mm 0.00 in/hr0.0 mm/hr 0.00 in0.0 mm
10:37 AM 56.5°F13.6°C 12.2°F-11.0°C 17% 1.0 mph NNW1.6 kmh NNW 5.4 mph8.7 kmh 30.65 in1037.9 mb 0.00 in0.0 mm 0.00 in/hr0.0 mm/hr 0.00 in0.0 mm
10:47 AM 57.6°F14.2°C 13.1°F-10.5°C 17% Calm Calm 3.1 mph5.0 kmh 30.65 in1037.9 mb 0.00 in0.0 mm 0.00 in/hr0.0 mm/hr 0.00 in0.0 mm
10:57 AM 58.5°F14.7°C 13.8°F-10.1°C 17% 1.0 mph NNW1.6 kmh NNW 4.0 mph6.4 kmh 30.71 in1040.0 mb 0.00 in0.0 mm 0.00 in/hr0.0 mm/hr 0.00 in0.0 mm
11:07 AM 59.0°F15.0°C 14.2°F-9.9°C 17% 1.0 mph N1.6 kmh N 4.0 mph6.4 kmh 30.71 in1040.0 mb 0.00 in0.0 mm 0.00 in/hr0.0 mm/hr 0.00 in0.0 mm
11:18 AM 59.9°F15.5°C 15.1°F-9.4°C 17% 2.0 mph N3.2 kmh N 8.3 mph13.4 kmh 30.71 in1040.0 mb 0.00 in0.0 mm 0.00 in/hr0.0 mm/hr 0.00 in0.0 mm
11:28 AM 60.4°F15.8°C 15.4°F-9.2°C 17% 2.0 mph N3.2 kmh N 4.0 mph6.4 kmh 30.71 in1040.0 mb 0.00 in0.0 mm 0.00 in/hr0.0 mm/hr 0.00 in0.0 mm
11:38 AM 60.4°F15.8°C 15.4°F-9.2°C 17% 2.0 mph N3.2 kmh N 4.0 mph6.4 kmh 30.71 in1040.0 mb 0.00 in0.0 mm 0.00 in/hr0.0 mm/hr 0.00 in0.0 mm
11:48 AM 60.1°F15.6°C 15.1°F-9.4°C 17% 1.0 mph N1.6 kmh N 4.0 mph6.4 kmh 30.71 in1040.0 mb 0.00 in0.0 mm 0.00 in/hr0.0 mm/hr 0.00 in0.0 mm
11:58 AM 60.4°F15.8°C 15.4°F-9.2°C 17% 1.0 mph NNE1.6 kmh NNE 5.8 mph9.3 kmh 30.65 in1037.9 mb 0.00 in0.0 mm 0.00 in/hr0.0 mm/hr 0.00 in0.0 mm
12:08 PM 61.0°F16.1°C 14.5°F-9.7°C 16% 1.0 mph NNE1.6 kmh NNE 4.9 mph7.9 kmh 30.65 in1037.9 mb 0.00 in0.0 mm 0.00 in/hr0.0 mm/hr 0.00 in0.0 mm
12:18 PM 61.9°F16.6°C 15.3°F-9.3°C 16% 2.0 mph N3.2 kmh N 7.2 mph11.6 kmh 30.65 in1037.9 mb 0.00 in0.0 mm 0.00 in/hr0.0 mm/hr 0.00 in0.0 mm
12:28 PM 61.9°F16.6°C 15.3°F-9.3°C 16% 3.0 mph N4.8 kmh N 8.7 mph14.0 kmh 30.65 in1037.9 mb 0.00 in0.0 mm 0.00 in/hr0.0 mm/hr 0.00 in0.0 mm
12:38 PM 62.1°F16.7°C 15.4°F-9.2°C 16% 3.0 mph N4.8 kmh N 7.6 mph12.2 kmh 30.65 in1037.9 mb 0.00 in0.0 mm 0.00 in/hr0.0 mm/hr 0.00 in0.0 mm
12:48 PM 62.2°F16.8°C 15.4°F-9.2°C 16% 4.0 mph N6.4 kmh N 8.1 mph13.0 kmh 30.65 in1037.9 mb 0.00 in0.0 mm 0.00 in/hr0.0 mm/hr 0.00 in0.0 mm
12:58 PM 63.3°F17.4°C 16.3°F-8.7°C 16% 3.0 mph N4.8 kmh N 6.3 mph10.1 kmh 30.65 in1037.9 mb 0.00 in0.0 mm 0.00 in/hr0.0 mm/hr 0.00 in0.0 mm
01:08 PM 63.3°F17.4°C 16.3°F-8.7°C 16% 3.0 mph N4.8 kmh N 6.3 mph10.1 kmh 30.65 in1037.9 mb 0.00 in0.0 mm 0.00 in/hr0.0 mm/hr 0.00 in0.0 mm
01:18 PM 63.5°F17.5°C 16.5°F-8.6°C 16% 2.0 mph N3.2 kmh N 5.4 mph8.7 kmh 30.65 in1037.9 mb 0.00 in0.0 mm 0.00 in/hr0.0 mm/hr 0.00 in0.0 mm
01:28 PM 63.1°F17.3°C 16.2°F-8.8°C 16% 3.0 mph N4.8 kmh N 8.1 mph13.0 kmh 30.65 in1037.9 mb 0.00 in0.0 mm 0.00 in/hr0.0 mm/hr 0.00 in0.0 mm
01:38 PM 62.8°F17.1°C 16.0°F-8.9°C 16% 2.0 mph N3.2 kmh N 5.8 mph9.3 kmh 30.65 in1037.9 mb 0.00 in0.0 mm 0.00 in/hr0.0 mm/hr 0.00 in0.0 mm
01:49 PM 62.4°F16.9°C 15.6°F-9.1°C 16% 2.0 mph N3.2 kmh N 4.9 mph7.9 kmh 30.65 in1037.9 mb 0.00 in0.0 mm 0.00 in/hr0.0 mm/hr 0.00 in0.0 mm
01:59 PM 63.0°F17.2°C 16.2°F-8.8°C 16% 1.0 mph N1.6 kmh N 4.9 mph7.9 kmh 30.65 in1037.9 mb 0.00 in0.0 mm 0.00 in/hr0.0 mm/hr 0.00 in0.0 mm
02:09 PM 63.1°F17.3°C 16.2°F-8.8°C 16% 2.0 mph N3.2 kmh N 4.0 mph6.4 kmh 30.65 in1037.9 mb 0.00 in0.0 mm 0.00 in/hr0.0 mm/hr 0.00 in0.0 mm
02:19 PM 63.3°F17.4°C 16.3°F-8.7°C 16% 2.0 mph N3.2 kmh N 5.4 mph8.7 kmh 30.65 in1037.9 mb 0.00 in0.0 mm 0.00 in/hr0.0 mm/hr 0.00 in0.0 mm
02:29 PM 63.1°F17.3°C 16.2°F-8.8°C 16% 2.0 mph N3.2 kmh N 6.7 mph10.8 kmh 30.65 in1037.9 mb 0.00 in0.0 mm 0.00 in/hr0.0 mm/hr 0.00 in0.0 mm
02:39 PM 62.4°F16.9°C 15.6°F-9.1°C 16% 2.0 mph N3.2 kmh N 8.3 mph13.4 kmh 30.65 in1037.9 mb 0.00 in0.0 mm 0.00 in/hr0.0 mm/hr 0.00 in0.0 mm
02:49 PM 62.2°F16.8°C 15.4°F-9.2°C 16% 3.0 mph N4.8 kmh N 4.5 mph7.2 kmh 30.65 in1037.9 mb 0.00 in0.0 mm 0.00 in/hr0.0 mm/hr 0.00 in0.0 mm
02:59 PM 62.2°F16.8°C 15.4°F-9.2°C 16% 2.0 mph 3.2 kmh 5.8 mph9.3 kmh 30.65 in1037.9 mb 0.00 in0.0 mm 0.00 in/hr0.0 mm/hr 0.00 in0.0 mm
03:09 PM 62.6°F17.0°C 15.8°F-9.0°C 16% 2.0 mph N3.2 kmh N 6.7 mph10.8 kmh 30.65 in1037.9 mb 0.00 in0.0 mm 0.00 in/hr0.0 mm/hr 0.00 in0.0 mm
03:19 PM 62.4°F16.9°C 15.6°F-9.1°C 16% 2.0 mph N3.2 kmh N 6.3 mph10.1 kmh 30.65 in1037.9 mb 0.00 in0.0 mm 0.00 in/hr0.0 mm/hr 0.00 in0.0 mm
03:29 PM 62.2°F16.8°C 15.4°F-9.2°C 16% 2.0 mph N3.2 kmh N 4.0 mph6.4 kmh 30.65 in1037.9 mb 0.00 in0.0 mm 0.00 in/hr0.0 mm/hr 0.00 in0.0 mm
03:39 PM 63.0°F17.2°C 16.2°F-8.8°C 16% 2.0 mph N3.2 kmh N 8.1 mph13.0 kmh 30.65 in1037.9 mb 0.00 in0.0 mm 0.00 in/hr0.0 mm/hr 0.00 in0.0 mm
03:49 PM 63.0°F17.2°C 16.2°F-8.8°C 16% 2.0 mph N3.2 kmh N 4.9 mph7.9 kmh 30.65 in1037.9 mb 0.00 in0.0 mm 0.00 in/hr0.0 mm/hr 0.00 in0.0 mm
03:59 PM 62.6°F17.0°C 15.8°F-9.0°C 16% 2.0 mph N3.2 kmh N 6.3 mph10.1 kmh 30.65 in1037.9 mb 0.00 in0.0 mm 0.00 in/hr0.0 mm/hr 0.00 in0.0 mm
04:09 PM 62.6°F17.0°C 15.8°F-9.0°C 16% 2.0 mph 3.2 kmh 4.9 mph7.9 kmh 30.65 in1037.9 mb 0.00 in0.0 mm 0.00 in/hr0.0 mm/hr 0.00 in0.0 mm
04:19 PM 62.4°F16.9°C 15.6°F-9.1°C 16% 2.0 mph N3.2 kmh N 4.0 mph6.4 kmh 30.65 in1037.9 mb 0.00 in0.0 mm 0.00 in/hr0.0 mm/hr 0.00 in0.0 mm
04:29 PM 62.2°F16.8°C 15.4°F-9.2°C 16% 2.0 mph N3.2 kmh N 4.9 mph7.9 kmh 30.65 in1037.9 mb 0.00 in0.0 mm 0.00 in/hr0.0 mm/hr 0.00 in0.0 mm
04:39 PM 62.4°F16.9°C 15.6°F-9.1°C 16% 2.0 mph N3.2 kmh N 5.4 mph8.7 kmh 30.59 in1035.9 mb 0.00 in0.0 mm 0.00 in/hr0.0 mm/hr 0.00 in0.0 mm
04:49 PM 62.2°F16.8°C 15.4°F-9.2°C 16% 2.0 mph N3.2 kmh N 5.8 mph9.3 kmh 30.59 in1035.9 mb 0.00 in0.0 mm 0.00 in/hr0.0 mm/hr 0.00 in0.0 mm
04:59 PM 61.9°F16.6°C 15.3°F-9.3°C 16% 2.0 mph N3.2 kmh N 4.5 mph7.2 kmh 30.65 in1037.9 mb 0.00 in0.0 mm 0.00 in/hr0.0 mm/hr 0.00 in0.0 mm
05:09 PM 62.1°F16.7°C 15.4°F-9.2°C 16% 2.0 mph N3.2 kmh N 6.3 mph10.1 kmh 30.65 in1037.9 mb 0.00 in0.0 mm 0.00 in/hr0.0 mm/hr 0.00 in0.0 mm
05:19 PM 62.1°F16.7°C 15.4°F-9.2°C 16% 2.0 mph NNW3.2 kmh NNW 5.4 mph8.7 kmh 30.65 in1037.9 mb 0.00 in0.0 mm 0.00 in/hr0.0 mm/hr 0.00 in0.0 mm
05:29 PM 62.1°F16.7°C 15.4°F-9.2°C 16% 2.0 mph NNW3.2 kmh NNW 4.0 mph6.4 kmh 30.65 in1037.9 mb 0.00 in0.0 mm 0.00 in/hr0.0 mm/hr 0.00 in0.0 mm
05:39 PM 61.9°F16.6°C 15.3°F-9.3°C 16% 1.0 mph NNW1.6 kmh NNW 4.9 mph7.9 kmh 30.65 in1037.9 mb 0.00 in0.0 mm 0.00 in/hr0.0 mm/hr 0.00 in0.0 mm
05:49 PM 61.9°F16.6°C 15.3°F-9.3°C 16% 1.0 mph NNW1.6 kmh NNW 4.0 mph6.4 kmh 30.65 in1037.9 mb 0.00 in0.0 mm 0.00 in/hr0.0 mm/hr 0.00 in0.0 mm
06:00 PM 60.8°F16.0°C 14.4°F-9.8°C 16% 1.0 mph NNW1.6 kmh NNW 4.9 mph7.9 kmh 30.65 in1037.9 mb 0.00 in0.0 mm 0.00 in/hr0.0 mm/hr 0.00 in0.0 mm
06:10 PM 60.3°F15.7°C 15.3°F-9.3°C 17% 2.0 mph SE3.2 kmh SE 4.0 mph6.4 kmh 30.65 in1037.9 mb 0.00 in0.0 mm 0.00 in/hr0.0 mm/hr 0.00 in0.0 mm
06:20 PM 60.1°F15.6°C 15.1°F-9.4°C 17% 2.0 mph SSE3.2 kmh SSE 4.9 mph7.9 kmh 30.65 in1037.9 mb 0.00 in0.0 mm 0.00 in/hr0.0 mm/hr 0.00 in0.0 mm
06:30 PM 59.5°F15.3°C 14.7°F-9.6°C 17% 3.0 mph SSE4.8 kmh SSE 6.3 mph10.1 kmh 30.65 in1037.9 mb 0.00 in0.0 mm 0.00 in/hr0.0 mm/hr 0.00 in0.0 mm
06:40 PM 59.2°F15.1°C 14.4°F-9.8°C 17% 3.0 mph SSE4.8 kmh SSE 5.4 mph8.7 kmh 30.65 in1037.9 mb 0.00 in0.0 mm 0.00 in/hr0.0 mm/hr 0.00 in0.0 mm
06:50 PM 59.0°F15.0°C 14.2°F-9.9°C 17% 3.0 mph SSE4.8 kmh SSE 5.4 mph8.7 kmh 30.65 in1037.9 mb 0.00 in0.0 mm 0.00 in/hr0.0 mm/hr 0.00 in0.0 mm
07:00 PM 58.6°F14.8°C 14.0°F-10.0°C 17% 2.0 mph SSE3.2 kmh SSE 3.6 mph5.8 kmh 30.65 in1037.9 mb 0.00 in0.0 mm 0.00 in/hr0.0 mm/hr 0.00 in0.0 mm
07:10 PM 58.3°F14.6°C 13.6°F-10.2°C 17% 2.0 mph SSE3.2 kmh SSE 3.6 mph5.8 kmh 30.65 in1037.9 mb 0.00 in0.0 mm 0.00 in/hr0.0 mm/hr 0.00 in0.0 mm
07:20 PM 58.1°F14.5°C 13.5°F-10.3°C 17% 1.0 mph SSE1.6 kmh SSE 3.1 mph5.0 kmh 30.65 in1037.9 mb 0.00 in0.0 mm 0.00 in/hr0.0 mm/hr 0.00 in0.0 mm
07:30 PM 57.7°F14.3°C 13.3°F-10.4°C 17% 1.0 mph SE1.6 kmh SE 3.1 mph5.0 kmh 30.65 in1037.9 mb 0.00 in0.0 mm 0.00 in/hr0.0 mm/hr 0.00 in0.0 mm
07:40 PM 57.4°F14.1°C 12.9°F-10.6°C 17% 1.0 mph SSE1.6 kmh SSE -- 30.65 in1037.9 mb 0.00 in0.0 mm 0.00 in/hr0.0 mm/hr 0.00 in0.0 mm
07:50 PM 56.7°F13.7°C 12.4°F-10.9°C 17% Calm Calm -- 30.65 in1037.9 mb 0.00 in0.0 mm 0.00 in/hr0.0 mm/hr 0.00 in0.0 mm
08:00 PM 56.3°F13.5°C 12.0°F-11.1°C 17% Calm Calm -- 30.65 in1037.9 mb 0.00 in0.0 mm 0.00 in/hr0.0 mm/hr 0.00 in0.0 mm
08:10 PM 55.9°F13.3°C 11.8°F-11.2°C 17% Calm Calm -- 30.65 in1037.9 mb 0.00 in0.0 mm 0.00 in/hr0.0 mm/hr 0.00 in0.0 mm
08:20 PM 55.4°F13.0°C 11.3°F-11.5°C 17% Calm Calm -- 30.65 in1037.9 mb 0.00 in0.0 mm 0.00 in/hr0.0 mm/hr 0.00 in0.0 mm
08:30 PM 55.2°F12.9°C 12.6°F-10.8°C 18% Calm Calm -- 30.65 in1037.9 mb 0.00 in0.0 mm 0.00 in/hr0.0 mm/hr 0.00 in0.0 mm
08:40 PM 54.7°F12.6°C 12.0°F-11.1°C 18% Calm Calm -- 30.65 in1037.9 mb 0.00 in0.0 mm 0.00 in/hr0.0 mm/hr 0.00 in0.0 mm
08:50 PM 54.5°F12.5°C 14.2°F-9.9°C 20% Calm Calm -- 30.65 in1037.9 mb 0.00 in0.0 mm 0.00 in/hr0.0 mm/hr 0.00 in0.0 mm
09:00 PM 54.1°F12.3°C 14.0°F-10.0°C 20% Calm Calm -- 30.65 in1037.9 mb 0.00 in0.0 mm 0.00 in/hr0.0 mm/hr 0.00 in0.0 mm
09:10 PM 53.8°F12.1°C 13.6°F-10.2°C 20% Calm Calm -- 30.65 in1037.9 mb 0.00 in0.0 mm 0.00 in/hr0.0 mm/hr 0.00 in0.0 mm
09:21 PM 53.4°F11.9°C 14.5°F-9.7°C 21% Calm Calm -- 30.65 in1037.9 mb 0.00 in0.0 mm 0.00 in/hr0.0 mm/hr 0.00 in0.0 mm
09:31 PM 53.1°F11.7°C 14.2°F-9.9°C 21% Calm Calm -- 30.65 in1037.9 mb 0.00 in0.0 mm 0.00 in/hr0.0 mm/hr 0.00 in0.0 mm
09:41 PM 52.7°F11.5°C 13.8°F-10.1°C 21% Calm Calm -- 30.65 in1037.9 mb 0.00 in0.0 mm 0.00 in/hr0.0 mm/hr 0.00 in0.0 mm
09:51 PM 52.2°F11.2°C 15.4°F-9.2°C 23% Calm Calm -- 30.65 in1037.9 mb 0.00 in0.0 mm 0.00 in/hr0.0 mm/hr 0.00 in0.0 mm
10:01 PM 51.8°F11.0°C 15.3°F-9.3°C 23% Calm Calm -- 30.65 in1037.9 mb 0.00 in0.0 mm 0.00 in/hr0.0 mm/hr 0.00 in0.0 mm
10:11 PM 51.3°F10.7°C 15.8°F-9.0°C 24% Calm Calm -- 30.65 in1037.9 mb 0.00 in0.0 mm 0.00 in/hr0.0 mm/hr 0.00 in0.0 mm
10:21 PM 50.9°F10.5°C 17.2°F-8.2°C 26% Calm Calm -- 30.65 in1037.9 mb 0.00 in0.0 mm 0.00 in/hr0.0 mm/hr 0.00 in0.0 mm
10:31 PM 50.5°F10.3°C 16.9°F-8.4°C 26% Calm Calm -- 30.65 in1037.9 mb 0.00 in0.0 mm 0.00 in/hr0.0 mm/hr 0.00 in0.0 mm
10:51 PM 50.0°F10.0°C 16.5°F-8.6°C 26% Calm Calm -- 30.65 in1037.9 mb 0.00 in0.0 mm 0.00 in/hr0.0 mm/hr 0.00 in0.0 mm
11:01 PM 49.5°F9.7°C 16.9°F-8.4°C 27% Calm Calm -- 30.65 in1037.9 mb 0.00 in0.0 mm 0.00 in/hr0.0 mm/hr 0.00 in0.0 mm
11:11 PM 48.7°F9.3°C 16.3°F-8.7°C 27% Calm Calm -- 30.65 in1037.9 mb 0.00 in0.0 mm 0.00 in/hr0.0 mm/hr 0.00 in0.0 mm
11:21 PM 48.2°F9.0°C 15.8°F-9.0°C 27% Calm Calm -- 30.65 in1037.9 mb 0.00 in0.0 mm 0.00 in/hr0.0 mm/hr 0.00 in0.0 mm
11:31 PM 47.8°F8.8°C 15.4°F-9.2°C 27% Calm Calm -- 30.65 in1037.9 mb 0.00 in0.0 mm 0.00 in/hr0.0 mm/hr 0.00 in0.0 mm
11:42 PM 47.5°F8.6°C 16.0°F-8.9°C 28% Calm Calm -- 30.65 in1037.9 mb 0.00 in0.0 mm 0.00 in/hr0.0 mm/hr 0.00 in0.0 mm
11:52 PM 47.3°F8.5°C 15.8°F-9.0°C 28% Calm Calm -- 30.65 in1037.9 mb 0.00 in0.0 mm 0.00 in/hr0.0 mm/hr 0.00 in0.0 mm